sensor_id;sensor_type;location;lat;lon;timestamp;pressure;altitude;pressure_sealevel;temperature;humidity
21086;BME280;72320;50.082;20.000;2023-09-18T00:01:06;99322.38;;;16.10;100.00
21086;BME280;72320;50.082;20.000;2023-09-18T00:02:40;99313.50;;;16.09;100.00
21086;BME280;72320;50.082;20.000;2023-09-18T00:04:13;99317.03;;;16.10;100.00
21086;BME280;72320;50.082;20.000;2023-09-18T00:05:46;99315.34;;;16.09;100.00
21086;BME280;72320;50.082;20.000;2023-09-18T00:07:20;99318.97;;;16.08;100.00
21086;BME280;72320;50.082;20.000;2023-09-18T00:08:53;99317.19;;;16.08;100.00
21086;BME280;72320;50.082;20.000;2023-09-18T00:10:26;99311.94;;;16.07;100.00
21086;BME280;72320;50.082;20.000;2023-09-18T00:11:59;99314.75;;;16.05;100.00
21086;BME280;72320;50.082;20.000;2023-09-18T00:13:32;99315.59;;;16.06;100.00
21086;BME280;72320;50.082;20.000;2023-09-18T00:15:06;99315.47;;;16.07;100.00
21086;BME280;72320;50.082;20.000;2023-09-18T00:16:39;99311.94;;;16.07;100.00
21086;BME280;72320;50.082;20.000;2023-09-18T00:18:30;99310.41;;;16.04;100.00
21086;BME280;72320;50.082;20.000;2023-09-18T00:20:04;99305.34;;;16.01;100.00
21086;BME280;72320;50.082;20.000;2023-09-18T00:21:37;99303.50;;;16.02;100.00
21086;BME280;72320;50.082;20.000;2023-09-18T00:23:10;99308.00;;;16.01;100.00
21086;BME280;72320;50.082;20.000;2023-09-18T00:24:43;99299.25;;;15.99;100.00
21086;BME280;72320;50.082;20.000;2023-09-18T00:26:16;99305.59;;;15.98;100.00
21086;BME280;72320;50.082;20.000;2023-09-18T00:27:49;99303.91;;;15.97;100.00
21086;BME280;72320;50.082;20.000;2023-09-18T00:29:22;99303.06;;;15.96;100.00
21086;BME280;72320;50.082;20.000;2023-09-18T00:30:55;99307.56;;;15.96;100.00
21086;BME280;72320;50.082;20.000;2023-09-18T00:32:28;99301.22;;;15.97;100.00
21086;BME280;72320;50.082;20.000;2023-09-18T00:34:02;99309.13;;;15.98;100.00
21086;BME280;72320;50.082;20.000;2023-09-18T00:35:35;99304.59;;;15.99;100.00
21086;BME280;72320;50.082;20.000;2023-09-18T00:37:08;99301.22;;;15.97;100.00
21086;BME280;72320;50.082;20.000;2023-09-18T00:38:40;99308.25;;;15.98;100.00
21086;BME280;72320;50.082;20.000;2023-09-18T00:40:14;99297.69;;;15.96;100.00
21086;BME280;72320;50.082;20.000;2023-09-18T00:41:47;99296.88;;;15.96;100.00
21086;BME280;72320;50.082;20.000;2023-09-18T00:43:20;99302.22;;;15.96;100.00
21086;BME280;72320;50.082;20.000;2023-09-18T00:44:56;99298.84;;;15.94;100.00
21086;BME280;72320;50.082;20.000;2023-09-18T00:46:29;99300.66;;;15.93;100.00
21086;BME280;72320;50.082;20.000;2023-09-18T00:48:02;99304.31;;;15.92;100.00
21086;BME280;72320;50.082;20.000;2023-09-18T00:49:38;99297.25;;;15.91;100.00
21086;BME280;72320;50.082;20.000;2023-09-18T00:51:12;99293.88;;;15.89;100.00
21086;BME280;72320;50.082;20.000;2023-09-18T00:52:45;99302.91;;;15.88;100.00
21086;BME280;72320;50.082;20.000;2023-09-18T00:54:19;99297.69;;;15.87;100.00
21086;BME280;72320;50.082;20.000;2023-09-18T00:55:56;99294.28;;;15.85;100.00
21086;BME280;72320;50.082;20.000;2023-09-18T00:57:30;99303.16;;;15.85;100.00
21086;BME280;72320;50.082;20.000;2023-09-18T00:59:04;99300.63;;;15.84;100.00
21086;BME280;72320;50.082;20.000;2023-09-18T01:00:37;99298.94;;;15.83;100.00
21086;BME280;72320;50.082;20.000;2023-09-18T01:02:10;99295.56;;;15.81;100.00
21086;BME280;72320;50.082;20.000;2023-09-18T01:03:44;99302.75;;;15.80;100.00
21086;BME280;72320;50.082;20.000;2023-09-18T01:05:17;99302.03;;;15.78;100.00
21086;BME280;72320;50.082;20.000;2023-09-18T01:06:50;99298.50;;;15.78;100.00
21086;BME280;72320;50.082;20.000;2023-09-18T01:08:23;99300.19;;;15.79;100.00
21086;BME280;72320;50.082;20.000;2023-09-18T01:09:56;99303.59;;;15.81;100.00
21086;BME280;72320;50.082;20.000;2023-09-18T01:13:42;99295.56;;;15.81;100.00
21086;BME280;72320;50.082;20.000;2023-09-18T01:15:24;99295.56;;;15.81;100.00
21086;BME280;72320;50.082;20.000;2023-09-18T01:17:01;99294.00;;;15.78;100.00
21086;BME280;72320;50.082;20.000;2023-09-18T01:18:34;99305.81;;;15.76;100.00
21086;BME280;72320;50.082;20.000;2023-09-18T01:20:11;99303.28;;;15.74;100.00
21086;BME280;72320;50.082;20.000;2023-09-18T01:21:45;99299.78;;;15.74;100.00
21086;BME280;72320;50.082;20.000;2023-09-18T01:23:18;99303.44;;;15.73;100.00
21086;BME280;72320;50.082;20.000;2023-09-18T01:24:51;99303.44;;;15.73;100.00
21086;BME280;72320;50.082;20.000;2023-09-18T01:26:24;99300.75;;;15.73;100.00
21086;BME280;72320;50.082;20.000;2023-09-18T01:27:57;99296.66;;;15.68;100.00
21086;BME280;72320;50.082;20.000;2023-09-18T01:29:31;99296.66;;;15.68;100.00
21086;BME280;72320;50.082;20.000;2023-09-18T01:31:04;99296.81;;;15.67;100.00
21086;BME280;72320;50.082;20.000;2023-09-18T01:32:39;99299.47;;;15.67;100.00
21086;BME280;72320;50.082;20.000;2023-09-18T01:34:15;99302.28;;;15.65;100.00
21086;BME280;72320;50.082;20.000;2023-09-18T01:35:51;99306.81;;;15.65;100.00
21086;BME280;72320;50.082;20.000;2023-09-18T01:37:29;99302.53;;;15.62;100.00
21086;BME280;72320;50.082;20.000;2023-09-18T01:39:03;99305.22;;;15.62;100.00
21086;BME280;72320;50.082;20.000;2023-09-18T01:40:36;99297.19;;;15.62;100.00
21086;BME280;72320;50.082;20.000;2023-09-18T01:42:10;99301.81;;;15.60;100.00
21086;BME280;72320;50.082;20.000;2023-09-18T01:43:43;99306.47;;;15.58;100.00
21086;BME280;72320;50.082;20.000;2023-09-18T01:45:16;99302.09;;;15.57;100.00
21086;BME280;72320;50.082;20.000;2023-09-18T01:46:52;99302.22;;;15.56;100.00
21086;BME280;72320;50.082;20.000;2023-09-18T01:48:25;99299.81;;;15.53;100.00
21086;BME280;72320;50.082;20.000;2023-09-18T01:50:02;99305.31;;;15.51;100.00
21086;BME280;72320;50.082;20.000;2023-09-18T01:51:35;99300.22;;;15.48;100.00
21086;BME280;72320;50.082;20.000;2023-09-18T01:53:08;99301.91;;;15.49;100.00
21086;BME280;72320;50.082;20.000;2023-09-18T01:54:42;99307.25;;;15.49;100.00
21086;BME280;72320;50.082;20.000;2023-09-18T01:56:15;99294.88;;;15.48;100.00
21086;BME280;72320;50.082;20.000;2023-09-18T01:57:47;99300.22;;;15.48;100.00
21086;BME280;72320;50.082;20.000;2023-09-18T01:59:21;99301.19;;;15.47;100.00
21086;BME280;72320;50.082;20.000;2023-09-18T02:00:55;99300.34;;;15.47;100.00
21086;BME280;72320;50.082;20.000;2023-09-18T02:02:31;99297.53;;;15.48;100.00
21086;BME280;72320;50.082;20.000;2023-09-18T02:04:24;99303.72;;;15.49;100.00
21086;BME280;72320;50.082;20.000;2023-09-18T02:06:17;99292.19;;;15.48;100.00
21086;BME280;72320;50.082;20.000;2023-09-18T02:07:50;99297.53;;;15.48;100.00
21086;BME280;72320;50.082;20.000;2023-09-18T02:09:24;99298.66;;;15.45;100.00
21086;BME280;72320;50.082;20.000;2023-09-18T02:10:56;99299.50;;;15.46;100.00
21086;BME280;72320;50.082;20.000;2023-09-18T02:12:29;99300.94;;;15.50;100.00
21086;BME280;72320;50.082;20.000;2023-09-18T02:14:03;99298.28;;;15.50;100.00
21086;BME280;72320;50.082;20.000;2023-09-18T02:15:37;99299.69;;;15.54;100.00
21086;BME280;72320;50.082;20.000;2023-09-18T02:17:11;99302.94;;;15.58;100.00
21086;BME280;72320;50.082;20.000;2023-09-18T02:18:43;99303.53;;;15.61;100.00
21086;BME280;72320;50.082;20.000;2023-09-18T02:20:16;99304.13;;;15.65;100.00
21086;BME280;72320;50.082;20.000;2023-09-18T02:21:50;99298.34;;;15.69;100.00
21086;BME280;72320;50.082;20.000;2023-09-18T02:23:23;99299.03;;;15.71;100.00
21086;BME280;72320;50.082;20.000;2023-09-18T02:24:56;99301.88;;;15.70;100.00
21086;BME280;72320;50.082;20.000;2023-09-18T02:26:30;99299.19;;;15.70;100.00
21086;BME280;72320;50.082;20.000;2023-09-18T02:28:03;99301.03;;;15.69;100.00
21086;BME280;72320;50.082;20.000;2023-09-18T02:29:36;99295.66;;;15.69;100.00
21086;BME280;72320;50.082;20.000;2023-09-18T02:31:11;99298.34;;;15.69;100.00
21086;BME280;72320;50.082;20.000;2023-09-18T02:32:44;99303.16;;;15.76;100.00
21086;BME280;72320;50.082;20.000;2023-09-18T02:34:18;99311.88;;;15.78;100.00
21086;BME280;72320;50.082;20.000;2023-09-18T02:35:51;99306.28;;;15.81;100.00
21086;BME280;72320;50.082;20.000;2023-09-18T02:37:24;99310.34;;;15.85;100.00
21086;BME280;72320;50.082;20.000;2023-09-18T02:38:57;99299.78;;;15.83;100.00
21086;BME280;72320;50.082;20.000;2023-09-18T02:40:30;99308.81;;;15.92;100.00
21086;BME280;72320;50.082;20.000;2023-09-18T02:42:03;99310.25;;;15.96;100.00
21086;BME280;72320;50.082;20.000;2023-09-18T02:43:38;99309.41;;;16.05;100.00
21086;BME280;72320;50.082;20.000;2023-09-18T02:45:11;99302.66;;;16.11;100.00
21086;BME280;72320;50.082;20.000;2023-09-18T02:46:44;99312.97;;;16.15;100.00
21086;BME280;72320;50.082;20.000;2023-09-18T02:48:18;99304.63;;;16.18;100.00
21086;BME280;72320;50.082;20.000;2023-09-18T02:49:51;99315.91;;;16.22;100.00
21086;BME280;72320;50.082;20.000;2023-09-18T02:51:24;99296.19;;;16.23;100.00
21086;BME280;72320;50.082;20.000;2023-09-18T02:52:57;99295.19;;;16.24;100.00
21086;BME280;72320;50.082;20.000;2023-09-18T02:54:30;99299.81;;;16.22;100.00
21086;BME280;72320;50.082;20.000;2023-09-18T02:56:03;99297.28;;;16.20;100.00
21086;BME280;72320;50.082;20.000;2023-09-18T02:57:36;99295.75;;;16.18;100.00
21086;BME280;72320;50.082;20.000;2023-09-18T02:59:09;99292.38;;;16.16;100.00
21086;BME280;72320;50.082;20.000;2023-09-18T03:00:45;99297.00;;;16.14;100.00
21086;BME280;72320;50.082;20.000;2023-09-18T03:02:18;99296.16;;;16.13;100.00
21086;BME280;72320;50.082;20.000;2023-09-18T03:03:52;99305.03;;;16.14;100.00
21086;BME280;72320;50.082;20.000;2023-09-18T03:05:25;99302.25;;;16.15;100.00
21086;BME280;72320;50.082;20.000;2023-09-18T03:06:58;99305.47;;;16.19;100.00
21086;BME280;72320;50.082;20.000;2023-09-18T03:08:32;99313.22;;;16.22;100.00
21086;BME280;72320;50.082;20.000;2023-09-18T03:10:06;99307.47;;;16.26;100.00
21086;BME280;72320;50.082;20.000;2023-09-18T03:11:39;99307.19;;;16.30;100.00
21086;BME280;72320;50.082;20.000;2023-09-18T03:13:15;99301.53;;;16.33;100.00
21086;BME280;72320;50.082;20.000;2023-09-18T03:14:48;99297.72;;;16.35;100.00
21086;BME280;72320;50.082;20.000;2023-09-18T03:16:21;99290.28;;;16.39;100.00
21086;BME280;72320;50.082;20.000;2023-09-18T03:17:54;99289.13;;;16.41;100.00
21086;BME280;72320;50.082;20.000;2023-09-18T03:19:27;99293.09;;;16.47;100.00
21086;BME280;72320;50.082;20.000;2023-09-18T03:21:00;99290.25;;;16.48;100.00
21086;BME280;72320;50.082;20.000;2023-09-18T03:22:33;99286.59;;;16.49;100.00
21086;BME280;72320;50.082;20.000;2023-09-18T03:24:06;99290.00;;;16.51;100.00
21086;BME280;72320;50.082;20.000;2023-09-18T03:25:40;99291.66;;;16.52;100.00
21086;BME280;72320;50.082;20.000;2023-09-18T03:27:23;99280.13;;;16.52;100.00
21086;BME280;72320;50.082;20.000;2023-09-18T03:28:56;99284.34;;;16.54;100.00
21086;BME280;72320;50.082;20.000;2023-09-18T03:30:29;99287.84;;;16.55;100.00
21086;BME280;72320;50.082;20.000;2023-09-18T03:32:02;99284.03;;;16.58;100.00
21086;BME280;72320;50.082;20.000;2023-09-18T03:33:35;99277.72;;;16.59;100.00
21086;BME280;72320;50.082;20.000;2023-09-18T03:35:10;99275.56;;;16.62;100.00
21086;BME280;72320;50.082;20.000;2023-09-18T03:36:43;99273.75;;;16.63;100.00
21086;BME280;72320;50.082;20.000;2023-09-18T03:38:16;99271.91;;;16.63;100.00
21086;BME280;72320;50.082;20.000;2023-09-18T03:39:49;99270.22;;;16.62;100.00
21086;BME280;72320;50.082;20.000;2023-09-18T03:41:22;99277.00;;;16.66;100.00
21086;BME280;72320;50.082;20.000;2023-09-18T03:42:55;99272.31;;;16.68;100.00
21086;BME280;72320;50.082;20.000;2023-09-18T03:44:28;99278.69;;;16.67;100.00
21086;BME280;72320;50.082;20.000;2023-09-18T03:46:06;99267.97;;;16.67;100.00
21086;BME280;72320;50.082;20.000;2023-09-18T03:47:41;99271.63;;;16.66;100.00
21086;BME280;72320;50.082;20.000;2023-09-18T03:49:14;99273.31;;;16.67;100.00
21086;BME280;72320;50.082;20.000;2023-09-18T03:50:47;99270.75;;;16.66;100.00
21086;BME280;72320;50.082;20.000;2023-09-18T03:52:21;99267.38;;;16.64;100.00
21086;BME280;72320;50.082;20.000;2023-09-18T03:53:54;99263.03;;;16.63;100.00
21086;BME280;72320;50.082;20.000;2023-09-18T03:55:26;99265.00;;;16.61;100.00
21086;BME280;72320;50.082;20.000;2023-09-18T03:56:59;99272.91;;;16.62;100.00
21086;BME280;72320;50.082;20.000;2023-09-18T03:58:33;99264.00;;;16.62;100.00
21086;BME280;72320;50.082;20.000;2023-09-18T04:00:21;99259.50;;;16.62;100.00
21086;BME280;72320;50.082;20.000;2023-09-18T04:01:54;99254.97;;;16.63;100.00
21086;BME280;72320;50.082;20.000;2023-09-18T04:03:27;99259.19;;;16.65;100.00
21086;BME280;72320;50.082;20.000;2023-09-18T04:05:01;99256.81;;;16.62;100.00
21086;BME280;72320;50.082;20.000;2023-09-18T04:06:43;99257.97;;;16.60;100.00
21086;BME280;72320;50.082;20.000;2023-09-18T04:08:16;99258.94;;;16.59;100.00
21086;BME280;72320;50.082;20.000;2023-09-18T04:09:49;99256.53;;;16.55;100.00
21086;BME280;72320;50.082;20.000;2023-09-18T04:11:22;99255.00;;;16.53;100.00
21086;BME280;72320;50.082;20.000;2023-09-18T04:12:55;99250.75;;;16.50;100.00
21086;BME280;72320;50.082;20.000;2023-09-18T04:14:28;99247.38;;;16.48;100.00
21086;BME280;72320;50.082;20.000;2023-09-18T04:16:01;99244.00;;;16.46;100.00
21086;BME280;72320;50.082;20.000;2023-09-18T04:17:34;99245.84;;;16.46;100.00
21086;BME280;72320;50.082;20.000;2023-09-18T04:19:08;99248.22;;;16.49;100.00
21086;BME280;72320;50.082;20.000;2023-09-18T04:20:41;99235.28;;;16.44;100.00
21086;BME280;72320;50.082;20.000;2023-09-18T04:22:14;99238.66;;;16.46;100.00
21086;BME280;72320;50.082;20.000;2023-09-18T04:23:47;99237.50;;;16.49;100.00
21086;BME280;72320;50.082;20.000;2023-09-18T04:25:20;99241.59;;;16.53;100.00
21086;BME280;72320;50.082;20.000;2023-09-18T04:26:53;99225.69;;;16.51;100.00
21086;BME280;72320;50.082;20.000;2023-09-18T04:28:26;99234.84;;;16.59;100.00
21086;BME280;72320;50.082;20.000;2023-09-18T04:29:59;99232.16;;;16.59;100.00
21086;BME280;72320;50.082;20.000;2023-09-18T04:31:32;99225.66;;;16.61;100.00
21086;BME280;72320;50.082;20.000;2023-09-18T04:33:05;99226.66;;;16.60;100.00
21086;BME280;72320;50.082;20.000;2023-09-18T04:34:38;99229.59;;;16.57;100.00
21086;BME280;72320;50.082;20.000;2023-09-18T04:36:11;99231.28;;;16.58;100.00
21086;BME280;72320;50.082;20.000;2023-09-18T04:37:44;99225.53;;;16.53;100.00
21086;BME280;72320;50.082;20.000;2023-09-18T04:39:17;99228.91;;;16.55;100.00
21086;BME280;72320;50.082;20.000;2023-09-18T04:40:59;99231.75;;;16.53;100.00
21086;BME280;72320;50.082;20.000;2023-09-18T04:42:32;99233.41;;;16.54;100.00
21086;BME280;72320;50.082;20.000;2023-09-18T04:44:05;99236.09;;;16.54;100.00
21086;BME280;72320;50.082;20.000;2023-09-18T04:45:38;99237.50;;;16.49;100.00
21086;BME280;72320;50.082;20.000;2023-09-18T04:47:11;99244.84;;;16.47;100.00
21086;BME280;72320;50.082;20.000;2023-09-18T04:48:44;99234.41;;;16.44;100.00
21086;BME280;72320;50.082;20.000;2023-09-18T04:50:17;99248.78;;;16.43;100.00
21086;BME280;72320;50.082;20.000;2023-09-18T04:51:51;99241.59;;;16.43;100.00
21086;BME280;72320;50.082;20.000;2023-09-18T04:53:25;99244.16;;;16.45;100.00
21086;BME280;72320;50.082;20.000;2023-09-18T04:54:58;99245.69;;;16.47;100.00
21086;BME280;72320;50.082;20.000;2023-09-18T04:56:31;99243.44;;;16.52;100.00
21086;BME280;72320;50.082;20.000;2023-09-18T04:58:04;99240.31;;;16.57;100.00
21086;BME280;72320;50.082;20.000;2023-09-18T04:59:37;99238.34;;;16.59;100.00
21086;BME280;72320;50.082;20.000;2023-09-18T05:01:10;99245.09;;;16.63;100.00
21086;BME280;72320;50.082;20.000;2023-09-18T05:02:44;99243.13;;;16.65;100.00
21086;BME280;72320;50.082;20.000;2023-09-18T05:04:18;99237.75;;;16.65;100.00
21086;BME280;72320;50.082;20.000;2023-09-18T05:05:51;99234.81;;;16.68;100.00
21086;BME280;72320;50.082;20.000;2023-09-18T05:07:25;99237.22;;;16.71;100.00
21086;BME280;72320;50.082;20.000;2023-09-18T05:08:58;99234.38;;;16.73;100.00
21086;BME280;72320;50.082;20.000;2023-09-18T05:10:31;99231.59;;;16.74;100.00
21086;BME280;72320;50.082;20.000;2023-09-18T05:12:05;99228.34;;;16.71;100.00
21086;BME280;72320;50.082;20.000;2023-09-18T05:13:39;99226.06;;;16.66;100.00
21086;BME280;72320;50.082;20.000;2023-09-18T05:15:12;99229.59;;;16.67;100.00
21086;BME280;72320;50.082;20.000;2023-09-18T05:16:45;99218.72;;;16.68;100.00
21086;BME280;72320;50.082;20.000;2023-09-18T05:18:18;99219.72;;;16.67;100.00
21086;BME280;72320;50.082;20.000;2023-09-18T05:19:51;99223.66;;;16.73;100.00
21086;BME280;72320;50.082;20.000;2023-09-18T05:21:24;99220.72;;;16.66;100.00
21086;BME280;72320;50.082;20.000;2023-09-18T05:22:59;99218.47;;;16.71;100.00
21086;BME280;72320;50.082;20.000;2023-09-18T05:24:32;99227.22;;;16.73;100.00
21086;BME280;72320;50.082;20.000;2023-09-18T05:26:05;99225.78;;;16.79;100.00
21086;BME280;72320;50.082;20.000;2023-09-18T05:27:38;99227.03;;;16.85;100.00
21086;BME280;72320;50.082;20.000;2023-09-18T05:29:11;99213.47;;;16.86;100.00
21086;BME280;72320;50.082;20.000;2023-09-18T05:30:44;99214.03;;;16.90;100.00
21086;BME280;72320;50.082;20.000;2023-09-18T05:32:17;99211.78;;;16.95;100.00
21086;BME280;72320;50.082;20.000;2023-09-18T05:33:50;99214.25;;;17.06;100.00
21086;BME280;72320;50.082;20.000;2023-09-18T05:35:23;99214.06;;;17.17;100.00
21086;BME280;72320;50.082;20.000;2023-09-18T05:36:56;99218.22;;;17.29;100.00
21086;BME280;72320;50.082;20.000;2023-09-18T05:38:30;99221.00;;;17.37;100.00
21086;BME280;72320;50.082;20.000;2023-09-18T05:40:06;99212.94;;;17.47;100.00
21086;BME280;72320;50.082;20.000;2023-09-18T05:41:40;99212.44;;;17.52;100.00
21086;BME280;72320;50.082;20.000;2023-09-18T05:43:14;99206.41;;;17.50;100.00
21086;BME280;72320;50.082;20.000;2023-09-18T05:44:47;99207.94;;;17.52;100.00
21086;BME280;72320;50.082;20.000;2023-09-18T05:46:20;99197.16;;;17.62;100.00
21086;BME280;72320;50.082;20.000;2023-09-18T05:47:53;99207.56;;;17.75;100.00
21086;BME280;72320;50.082;20.000;2023-09-18T05:49:27;99197.97;;;17.90;100.00
21086;BME280;72320;50.082;20.000;2023-09-18T05:51:00;99197.28;;;18.06;100.00
21086;BME280;72320;50.082;20.000;2023-09-18T05:52:34;99193.88;;;18.22;100.00
21086;BME280;72320;50.082;20.000;2023-09-18T05:54:07;99201.69;;;18.33;100.00
21086;BME280;72320;50.082;20.000;2023-09-18T05:55:40;99195.53;;;18.40;100.00
21086;BME280;72320;50.082;20.000;2023-09-18T05:57:13;99197.78;;;18.53;100.00
21086;BME280;72320;50.082;20.000;2023-09-18T05:58:46;99197.56;;;18.64;100.00
21086;BME280;72320;50.082;20.000;2023-09-18T06:00:19;99194.09;;;18.72;100.00
21086;BME280;72320;50.082;20.000;2023-09-18T06:01:52;99188.81;;;18.88;100.00
21086;BME280;72320;50.082;20.000;2023-09-18T06:03:26;99192.91;;;19.00;100.00
21086;BME280;72320;50.082;20.000;2023-09-18T06:05:01;99199.03;;;19.19;100.00
21086;BME280;72320;50.082;20.000;2023-09-18T06:06:34;99188.66;;;19.32;100.00
21086;BME280;72320;50.082;20.000;2023-09-18T06:08:07;99190.56;;;19.48;100.00
21086;BME280;72320;50.082;20.000;2023-09-18T06:09:40;99188.09;;;19.63;100.00
21086;BME280;72320;50.082;20.000;2023-09-18T06:11:14;99197.41;;;19.76;100.00
21086;BME280;72320;50.082;20.000;2023-09-18T06:12:47;99191.88;;;19.86;100.00
21086;BME280;72320;50.082;20.000;2023-09-18T06:14:20;99200.63;;;19.96;100.00
21086;BME280;72320;50.082;20.000;2023-09-18T06:15:55;99191.88;;;20.02;100.00
21086;BME280;72320;50.082;20.000;2023-09-18T06:17:29;99193.56;;;20.11;100.00
21086;BME280;72320;50.082;20.000;2023-09-18T06:19:02;99185.47;;;20.20;100.00
21086;BME280;72320;50.082;20.000;2023-09-18T06:20:35;99182.78;;;20.28;100.00
21086;BME280;72320;50.082;20.000;2023-09-18T06:22:08;99180.09;;;20.36;100.00
21086;BME280;72320;50.082;20.000;2023-09-18T06:23:41;99181.25;;;20.42;100.00
21086;BME280;72320;50.082;20.000;2023-09-18T06:25:14;99175.22;;;20.48;100.00
21086;BME280;72320;50.082;20.000;2023-09-18T06:26:47;99167.28;;;20.54;100.00
21086;BME280;72320;50.082;20.000;2023-09-18T06:28:20;99160.72;;;20.57;100.00
21086;BME280;72320;50.082;20.000;2023-09-18T06:29:53;99161.91;;;20.54;100.00
21086;BME280;72320;50.082;20.000;2023-09-18T06:31:26;99165.25;;;20.56;100.00
21086;BME280;72320;50.082;20.000;2023-09-18T06:33:00;99177.59;;;20.59;100.00
21086;BME280;72320;50.082;20.000;2023-09-18T06:34:33;99169.31;;;20.60;100.00
21086;BME280;72320;50.082;20.000;2023-09-18T06:36:07;99161.22;;;20.60;100.00
21086;BME280;72320;50.082;20.000;2023-09-18T06:37:40;99168.97;;;20.63;100.00
21086;BME280;72320;50.082;20.000;2023-09-18T06:39:13;99170.50;;;20.66;100.00
21086;BME280;72320;50.082;20.000;2023-09-18T06:40:47;99165.41;;;20.71;100.00
21086;BME280;72320;50.082;20.000;2023-09-18T06:42:21;99169.44;;;20.75;100.00
21086;BME280;72320;50.082;20.000;2023-09-18T06:43:53;99163.53;;;20.80;100.00
21086;BME280;72320;50.082;20.000;2023-09-18T06:45:27;99168.09;;;20.79;100.00
21086;BME280;72320;50.082;20.000;2023-09-18T06:47:00;99165.41;;;20.79;100.00
21086;BME280;72320;50.082;20.000;2023-09-18T06:48:33;99165.88;;;20.83;100.00
21086;BME280;72320;50.082;20.000;2023-09-18T06:50:06;99167.25;;;20.87;100.00
21086;BME280;72320;50.082;20.000;2023-09-18T06:51:40;99158.78;;;20.90;100.00
21086;BME280;72320;50.082;20.000;2023-09-18T06:53:16;99165.34;;;20.96;100.00
21086;BME280;72320;50.082;20.000;2023-09-18T06:54:51;99164.97;;;20.99;100.00
21086;BME280;72320;50.082;20.000;2023-09-18T06:56:24;99156.91;;;20.99;100.00
21086;BME280;72320;50.082;20.000;2023-09-18T06:57:58;99160.59;;;20.98;100.00
21086;BME280;72320;50.082;20.000;2023-09-18T06:59:31;99161.31;;;20.91;100.00
21086;BME280;72320;50.082;20.000;2023-09-18T07:01:07;99157.47;;;20.86;100.00
21086;BME280;72320;50.082;20.000;2023-09-18T07:02:40;99162.84;;;20.86;100.00
21086;BME280;72320;50.082;20.000;2023-09-18T07:04:14;99163.19;;;20.83;100.00
21086;BME280;72320;50.082;20.000;2023-09-18T07:05:47;99164.22;;;20.82;100.00
21086;BME280;72320;50.082;20.000;2023-09-18T07:07:20;99149.38;;;20.78;100.00
21086;BME280;72320;50.082;20.000;2023-09-18T07:08:53;99154.06;;;20.84;100.00
21086;BME280;72320;50.082;20.000;2023-09-18T07:10:27;99150.03;;;20.88;100.00
21086;BME280;72320;50.082;20.000;2023-09-18T07:12:00;99161.44;;;20.98;100.00
21086;BME280;72320;50.082;20.000;2023-09-18T07:13:33;99158.06;;;21.04;100.00
21086;BME280;72320;50.082;20.000;2023-09-18T07:15:07;99160.06;;;21.10;100.00
21086;BME280;72320;50.082;20.000;2023-09-18T07:16:41;99160.69;;;21.20;100.00
21086;BME280;72320;50.082;20.000;2023-09-18T07:18:13;99157.28;;;21.27;100.00
21086;BME280;72320;50.082;20.000;2023-09-18T07:19:46;99156.44;;;21.34;100.00
21086;BME280;72320;50.082;20.000;2023-09-18T07:21:20;99155.53;;;21.42;100.00
21086;BME280;72320;50.082;20.000;2023-09-18T07:22:53;99154.66;;;21.50;100.00
21086;BME280;72320;50.082;20.000;2023-09-18T07:24:25;99154.44;;;21.59;100.00
21086;BME280;72320;50.082;20.000;2023-09-18T07:25:59;99160.44;;;21.69;100.00
21086;BME280;72320;50.082;20.000;2023-09-18T07:27:32;99156.84;;;21.77;100.00
21086;BME280;72320;50.082;20.000;2023-09-18T07:29:05;99155.09;;;21.84;100.00
21086;BME280;72320;50.082;20.000;2023-09-18T07:30:38;99146.47;;;21.89;100.00
21086;BME280;72320;50.082;20.000;2023-09-18T07:32:11;99143.59;;;21.90;100.00
21086;BME280;72320;50.082;20.000;2023-09-18T07:33:50;99144.88;;;21.94;100.00
21086;BME280;72320;50.082;20.000;2023-09-18T07:35:24;99144.16;;;22.00;100.00
21086;BME280;72320;50.082;20.000;2023-09-18T07:36:57;99140.28;;;22.03;99.20
21086;BME280;72320;50.082;20.000;2023-09-18T07:38:31;99141.59;;;22.07;99.56
21086;BME280;72320;50.082;20.000;2023-09-18T07:40:06;99144.44;;;22.14;98.41
21086;BME280;72320;50.082;20.000;2023-09-18T07:41:39;99128.72;;;22.17;99.05
21086;BME280;72320;50.082;20.000;2023-09-18T07:43:13;99140.09;;;22.27;98.19
21086;BME280;72320;50.082;20.000;2023-09-18T07:44:47;99139.56;;;22.32;98.32
21086;BME280;72320;50.082;20.000;2023-09-18T07:46:20;99141.97;;;22.42;98.17
21086;BME280;72320;50.082;20.000;2023-09-18T07:47:53;99143.97;;;22.48;97.10
21086;BME280;72320;50.082;20.000;2023-09-18T07:49:26;99138.84;;;22.53;97.06
21086;BME280;72320;50.082;20.000;2023-09-18T07:50:59;99144.81;;;22.63;97.09
21086;BME280;72320;50.082;20.000;2023-09-18T07:52:32;99134.94;;;22.70;95.65
21086;BME280;72320;50.082;20.000;2023-09-18T07:54:07;99141.72;;;22.81;95.68
21086;BME280;72320;50.082;20.000;2023-09-18T07:55:40;99140.28;;;22.93;95.37
21086;BME280;72320;50.082;20.000;2023-09-18T07:57:13;99141.00;;;23.02;94.88
21086;BME280;72320;50.082;20.000;2023-09-18T07:58:46;99138.19;;;23.10;94.43
21086;BME280;72320;50.082;20.000;2023-09-18T08:00:19;99140.63;;;23.20;94.20
21086;BME280;72320;50.082;20.000;2023-09-18T08:01:52;99139.69;;;23.27;93.91
21086;BME280;72320;50.082;20.000;2023-09-18T08:03:26;99132.47;;;23.34;93.50
21086;BME280;72320;50.082;20.000;2023-09-18T08:04:59;99137.78;;;23.43;92.41
21086;BME280;72320;50.082;20.000;2023-09-18T08:06:32;99141.41;;;23.50;91.83